Time;durP1;ratioP1;P1;durP2;ratioP2;P2;SDS_P1;SDS_P2;PMS_P1;PMS_P2;Temp;Humidity;BMP_temperature;BMP_pressure;BME280_temperature;BME280_humidity;BME280_pressure;Samples;Min_cycle;Max_cycle;Signal;HPM_P1;HPM_P2
2022/09/13 00:00:41;;;;;;;29.40;13.52;;;16.30;99.90;;;;;;5074774;28;20110;-82
2022/09/13 00:03:08;;;;;;;34.15;16.10;;;16.20;99.90;;;;;;5092163;28;20455;-83
2022/09/13 00:05:35;;;;;;;23.98;13.32;;;16.10;99.90;;;;;;5083844;28;20080;-83
2022/09/13 00:08:01;;;;;;;48.40;16.85;;;16.20;99.90;;;;;;5073505;28;20063;-83
2022/09/13 00:10:27;;;;;;;50.60;16.50;;;16.20;99.90;;;;;;5075251;28;20049;-83
2022/09/13 00:12:53;;;;;;;29.73;13.57;;;16.20;99.90;;;;;;5074568;28;20048;-83
2022/09/13 00:15:20;;;;;;;40.97;15.75;;;16.20;99.90;;;;;;5073172;28;20048;-83
2022/09/13 00:17:45;;;;;;;44.30;16.58;;;16.20;99.90;;;;;;5073619;28;20444;-83
2022/09/13 00:20:11;;;;;;;55.95;19.30;;;16.20;99.90;;;;;;5073424;28;20044;-83
2022/09/13 00:22:37;;;;;;;50.95;18.65;;;16.20;99.90;;;;;;5073191;28;20044;-84
2022/09/13 00:25:04;;;;;;;67.75;20.35;;;16.30;99.90;;;;;;5073468;28;20055;-83
2022/09/13 00:27:35;;;;;;;42.60;16.85;;;16.30;99.90;;;;;;5072711;28;20040;-84
2022/09/13 00:30:06;;;;;;;76.70;21.83;;;16.30;99.90;;;;;;5073039;28;20124;-84
2022/09/13 00:32:33;;;;;;;55.60;19.42;;;16.30;99.90;;;;;;5074530;28;20080;-83
2022/09/13 00:34:59;;;;;;;39.75;18.63;;;16.30;99.90;;;;;;5074054;28;20498;-83
2022/09/13 00:37:24;;;;;;;111.10;25.95;;;16.30;99.90;;;;;;5074182;28;20056;-84
2022/09/13 00:39:50;;;;;;;63.08;21.27;;;16.30;99.90;;;;;;5074595;28;20048;-83
2022/09/13 00:42:16;;;;;;;65.43;22.70;;;16.30;99.90;;;;;;5073817;28;20074;-83
2022/09/13 00:44:57;;;;;;;106.60;27.38;;;16.40;99.90;;;;;;5073174;28;20128;-83
2022/09/13 00:47:32;;;;;;;;;;;16.40;99.90;;;;;;5074579;28;20059;-83
2022/09/13 00:50:09;;;;;;;113.03;27.73;;;16.40;99.90;;;;;;5074101;28;19965;-83
2022/09/13 00:52:37;;;;;;;58.00;21.67;;;16.40;99.90;;;;;;5073971;28;20497;-83
2022/09/13 00:55:18;;;;;;;114.13;28.23;;;16.40;99.90;;;;;;5072569;28;20097;-83
2022/09/13 00:57:44;;;;;;;74.78;24.40;;;16.40;99.90;;;;;;5066111;28;20068;-83
2022/09/13 01:00:13;;;;;;;29.63;18.23;;;16.40;99.90;;;;;;5073931;28;20139;-83
2022/09/13 01:02:54;;;;;;;93.50;26.52;;;16.50;99.90;;;;;;5100420;28;20048;-83
2022/09/13 01:05:26;;;;;;;119.95;30.90;;;16.50;99.90;;;;;;5053410;28;20056;-83
2022/09/13 01:07:52;;;;;;;65.82;24.33;;;16.50;99.90;;;;;;5065492;28;20059;-83
2022/09/13 01:10:18;;;;;;;125.00;30.38;;;16.50;99.90;;;;;;5072995;28;20056;-83
2022/09/13 01:13:13;;;;;;;114.75;30.38;;;16.60;99.90;;;;;;5055827;28;20051;-83
2022/09/13 01:15:39;;;;;;;85.63;27.50;;;16.60;99.90;;;;;;5058335;28;20052;-83
2022/09/13 01:18:07;;;;;;;149.07;32.97;;;16.50;99.90;;;;;;5055009;28;20052;-84
2022/09/13 01:20:45;;;;;;;121.30;31.25;;;16.60;99.90;;;;;;5073701;28;20076;-84
2022/09/13 01:23:20;;;;;;;136.77;33.45;;;16.60;99.90;;;;;;5072352;28;20127;-84
2022/09/13 01:26:00;;;;;;;86.85;27.30;;;16.60;99.90;;;;;;5072478;28;20110;-83
2022/09/13 01:28:59;;;;;;;107.13;31.58;;;16.60;99.90;;;;;;5072886;28;20434;-84
2022/09/13 01:31:51;;;;;;;89.63;28.45;;;16.60;99.90;;;;;;5073831;28;20102;-83
2022/09/13 01:34:17;;;;;;;104.80;32.17;;;16.60;99.90;;;;;;5043562;28;20109;-84
2022/09/13 01:36:57;;;;;;;124.25;33.88;;;16.60;99.90;;;;;;5073236;28;20045;-84
2022/09/13 01:39:45;;;;;;;151.73;35.30;;;16.60;99.90;;;;;;5073885;28;20094;-83
2022/09/13 01:42:46;;;;;;;159.77;36.63;;;16.50;99.90;;;;;;5071861;28;20047;-84
2022/09/13 01:45:21;;;;;;;172.70;38.08;;;16.60;99.90;;;;;;5073057;28;20161;-84
2022/09/13 01:47:54;;;;;;;87.88;29.83;;;16.60;99.90;;;;;;5072077;28;20044;-83
2022/09/13 01:50:41;;;;;;;156.90;37.40;;;16.60;99.90;;;;;;5073535;28;20126;-83
2022/09/13 01:53:31;;;;;;;108.45;35.45;;;16.60;99.90;;;;;;5072119;28;20048;-83
2022/09/13 01:56:11;;;;;;;151.20;37.28;;;16.60;99.90;;;;;;5072576;28;20093;-83
2022/09/13 01:59:10;;;;;;;196.15;40.28;;;16.60;99.90;;;;;;5100759;28;20082;-83
2022/09/13 02:01:41;;;;;;;156.40;37.20;;;16.60;99.90;;;;;;5072634;28;20401;-83
2022/09/13 02:04:19;;;;;;;151.60;38.90;;;16.60;99.90;;;;;;5073198;28;20044;-84
2022/09/13 02:06:52;;;;;;;160.10;39.72;;;16.60;99.90;;;;;;5072521;28;20060;-84
2022/09/13 02:09:23;;;;;;;182.07;41.50;;;16.60;99.90;;;;;;5072796;28;20087;-84
2022/09/13 02:11:55;;;;;;;137.38;37.28;;;16.60;99.90;;;;;;5073118;28;20052;-84
2022/09/13 02:14:28;;;;;;;184.00;41.00;;;16.60;99.90;;;;;;5071851;28;20053;-84
2022/09/13 02:17:21;;;;;;;178.60;40.65;;;16.70;99.90;;;;;;5055115;28;20119;-83
2022/09/13 02:19:55;;;;;;;179.93;42.38;;;16.70;99.90;;;;;;5065656;28;20052;-84
2022/09/13 02:22:27;;;;;;;211.10;44.45;;;16.70;99.90;;;;;;5071495;28;20105;-84
2022/09/13 02:24:59;;;;;;;168.48;41.97;;;16.70;99.90;;;;;;5071425;28;20132;-85
2022/09/13 02:27:28;;;;;;;138.60;40.83;;;16.70;99.90;;;;;;5070535;28;20060;-84
2022/09/13 02:30:00;;;;;;;127.63;37.97;;;16.70;99.90;;;;;;5074505;28;20083;-84
2022/09/13 02:32:39;;;;;;;199.25;43.90;;;16.70;99.90;;;;;;5076700;28;20040;-84
2022/09/13 02:35:13;;;;;;;187.65;44.47;;;16.70;99.90;;;;;;5056920;28;20502;-84
2022/09/13 02:37:43;;;;;;;86.45;35.53;;;16.70;99.90;;;;;;5069789;28;20465;-84
2022/09/13 02:40:22;;;;;;;157.13;43.28;;;16.70;99.90;;;;;;5076781;28;20167;-84
2022/09/13 02:43:03;;;;;;;91.07;36.42;;;16.70;99.90;;;;;;5076537;28;20490;-84
2022/09/13 02:45:39;;;;;;;152.30;42.15;;;16.70;99.90;;;;;;5075287;28;20049;-84
2022/09/13 02:48:15;;;;;;;115.38;36.42;;;16.70;99.90;;;;;;5075019;28;20422;-84
2022/09/13 02:50:48;;;;;;;95.72;36.92;;;16.70;99.90;;;;;;5075919;28;20055;-83
2022/09/13 02:53:21;;;;;;;100.65;34.70;;;16.70;99.90;;;;;;5076385;28;20417;-84
2022/09/13 02:55:54;;;;;;;97.97;32.70;;;16.70;99.90;;;;;;5076667;28;20067;-84
2022/09/13 02:58:29;;;;;;;202.55;45.10;;;16.70;99.90;;;;;;5075170;28;20049;-84
2022/09/13 03:00:55;;;;;;;187.32;44.42;;;16.70;99.90;;;;;;5076677;28;20428;-84
2022/09/13 03:03:22;;;;;;;184.35;43.50;;;16.70;99.90;;;;;;5107840;28;20056;-84
2022/09/13 03:05:48;;;;;;;119.28;37.67;;;16.70;99.90;;;;;;5076417;28;20076;-84
2022/09/13 03:08:16;;;;;;;131.85;37.75;;;16.70;99.90;;;;;;5074212;28;20103;-84
2022/09/13 03:11:13;;;;;;;92.30;31.58;;;16.70;99.90;;;;;;5074627;28;20493;-83
2022/09/13 03:14:15;;;;;;;86.85;33.03;;;16.80;99.90;;;;;;5075276;28;20055;-83
2022/09/13 03:17:06;;;;;;;146.13;39.53;;;16.80;99.90;;;;;;5059439;28;20047;-84
2022/09/13 03:19:53;;;;;;;122.40;36.28;;;16.70;99.90;;;;;;5075026;28;20555;-84
2022/09/13 03:22:56;;;;;;;57.25;29.17;;;16.70;99.90;;;;;;5075686;28;20041;-84
2022/09/13 03:25:48;;;;;;;128.40;36.35;;;16.80;99.90;;;;;;5065478;28;20124;-84
2022/09/13 03:28:42;;;;;;;114.35;36.63;;;16.70;99.90;;;;;;5074742;28;20049;-83
2022/09/13 03:31:17;;;;;;;67.10;29.27;;;16.70;99.90;;;;;;5075786;28;20076;-83
2022/09/13 03:33:58;;;;;;;108.97;36.78;;;16.70;99.90;;;;;;5042408;28;20131;-84
2022/09/13 03:36:23;;;;;;;;;;;16.70;99.90;;;;;;5058679;28;20115;-83
2022/09/13 03:39:21;;;;;;;148.80;39.50;;;16.70;99.90;;;;;;5075627;28;19964;-84
2022/09/13 03:41:54;;;;;;;70.60;33.00;;;16.70;99.90;;;;;;5038256;28;20403;-84
2022/09/13 03:44:23;;;;;;;151.07;42.65;;;16.70;99.90;;;;;;5062941;28;20070;-84
2022/09/13 03:46:53;;;;;;;119.28;29.75;;;16.70;99.90;;;;;;5057938;28;20395;-84
2022/09/13 03:49:22;;;;;;;119.25;38.72;;;16.80;99.90;;;;;;5075237;28;20401;-84
2022/09/13 03:51:49;;;;;;;121.40;38.60;;;16.80;99.90;;;;;;5075243;28;20090;-85
2022/09/13 03:54:25;;;;;;;117.45;39.22;;;16.70;99.90;;;;;;5035676;28;20049;-84
2022/09/13 03:57:11;;;;;;;184.18;44.67;;;16.80;99.90;;;;;;5061934;28;20502;-84
2022/09/13 03:59:56;;;;;;;96.10;32.90;;;16.80;99.90;;;;;;5074882;28;20048;-84
2022/09/13 04:02:23;;;;;;;99.50;37.13;;;16.80;99.90;;;;;;5074007;28;20040;-85
2022/09/13 04:04:49;;;;;;;74.18;32.25;;;16.80;99.90;;;;;;5074616;28;20115;-85
2022/09/13 04:07:22;;;;;;;154.75;41.65;;;16.80;99.90;;;;;;5073494;28;20055;-84
2022/09/13 04:09:48;;;;;;;119.50;39.50;;;16.80;99.90;;;;;;5045302;28;20057;-84
2022/09/13 04:12:15;;;;;;;58.58;32.30;;;16.80;99.90;;;;;;5073514;28;20056;-85
2022/09/13 04:14:42;;;;;;;202.48;45.22;;;16.80;99.90;;;;;;5056881;28;20036;-84
2022/09/13 04:17:09;;;;;;;147.40;42.17;;;16.80;99.90;;;;;;5074757;28;20090;-84
2022/09/13 04:19:35;;;;;;;178.05;43.80;;;16.80;99.90;;;;;;5073179;28;20044;-84
2022/09/13 04:22:01;;;;;;;129.30;41.00;;;16.80;99.90;;;;;;5073321;28;20048;-84
2022/09/13 04:24:28;;;;;;;111.75;35.08;;;16.90;99.90;;;;;;5073850;28;20064;-84
2022/09/13 04:26:55;;;;;;;170.70;44.22;;;16.90;99.90;;;;;;5074596;28;20489;-84
2022/09/13 04:29:22;;;;;;;56.40;28.77;;;16.90;99.90;;;;;;5056639;28;20044;-84
2022/09/13 04:31:49;;;;;;;115.55;37.63;;;16.90;99.90;;;;;;5073467;28;20056;-85
2022/09/13 04:34:17;;;;;;;47.90;23.15;;;16.90;99.90;;;;;;5074487;28;20051;-84
2022/09/13 04:36:44;;;;;;;212.68;44.20;;;16.90;99.90;;;;;;5074211;28;20477;-84
2022/09/13 04:39:12;;;;;;;67.65;32.47;;;16.90;99.90;;;;;;5074839;28;20094;-84
2022/09/13 04:41:43;;;;;;;47.03;24.75;;;16.90;99.90;;;;;;5073113;28;20048;-84
2022/09/13 04:44:09;;;;;;;142.52;38.47;;;16.90;99.90;;;;;;5072679;28;20048;-84
2022/09/13 04:46:35;;;;;;;203.13;45.88;;;16.90;99.90;;;;;;5056524;28;20084;-84
2022/09/13 04:49:01;;;;;;;178.55;43.22;;;16.90;99.90;;;;;;5071027;28;20076;-84
2022/09/13 04:51:26;;;;;;;184.88;45.28;;;16.90;99.90;;;;;;5073115;28;20044;-84
2022/09/13 04:53:54;;;;;;;148.60;42.08;;;16.90;99.90;;;;;;5059925;28;20102;-84
2022/09/13 04:56:22;;;;;;;127.47;41.38;;;16.90;99.90;;;;;;5053441;28;20045;-84
2022/09/13 04:58:49;;;;;;;105.47;40.15;;;16.90;99.90;;;;;;5053888;28;20049;-84
2022/09/13 05:01:15;;;;;;;182.73;47.80;;;16.90;99.90;;;;;;5067013;28;20048;-84
2022/09/13 05:03:41;;;;;;;245.45;50.53;;;16.90;99.90;;;;;;5042317;28;20045;-84
2022/09/13 05:06:10;;;;;;;174.45;45.35;;;16.90;99.90;;;;;;5054342;28;20051;-84
2022/09/13 05:08:36;;;;;;;157.50;46.10;;;16.90;99.90;;;;;;5052609;28;20146;-84
2022/09/13 05:11:02;;;;;;;110.28;39.58;;;17.00;99.90;;;;;;5053053;28;20132;-84
2022/09/13 05:13:28;;;;;;;173.40;45.08;;;17.00;99.90;;;;;;5052770;28;20148;-84
2022/09/13 05:15:55;;;;;;;163.20;43.03;;;17.00;99.90;;;;;;5053016;28;20060;-84
2022/09/13 05:18:24;;;;;;;50.58;25.90;;;17.00;99.90;;;;;;5053990;28;20044;-84
2022/09/13 05:20:56;;;;;;;55.35;30.23;;;17.00;99.90;;;;;;5053905;28;20052;-84
2022/09/13 05:23:23;;;;;;;90.57;34.25;;;17.00;99.90;;;;;;5068583;28;20512;-83
2022/09/13 05:25:56;;;;;;;43.58;25.73;;;17.00;99.90;;;;;;5069033;28;20489;-83
2022/09/13 05:28:23;;;;;;;44.30;25.88;;;17.00;99.90;;;;;;5069032;28;20070;-85
2022/09/13 05:31:02;;;;;;;51.55;26.30;;;17.00;99.90;;;;;;5066428;28;20116;-84
2022/09/13 05:33:30;;;;;;;60.15;26.08;;;17.00;99.90;;;;;;5065866;28;20079;-85
2022/09/13 05:35:56;;;;;;;52.90;26.13;;;17.00;99.90;;;;;;5068770;28;20153;-84
2022/09/13 05:38:22;;;;;;;58.05;26.15;;;17.10;99.90;;;;;;5062527;28;20052;-84
2022/09/13 05:40:55;;;;;;;52.30;24.33;;;17.10;99.90;;;;;;5051942;28;20087;-84
2022/09/13 05:43:22;;;;;;;34.50;21.02;;;17.10;99.90;;;;;;5051808;28;20036;-85
2022/09/13 05:45:48;;;;;;;57.67;24.42;;;17.10;99.90;;;;;;5051279;28;20490;-84
2022/09/13 05:48:14;;;;;;;27.05;17.40;;;17.20;99.90;;;;;;5053704;28;20037;-84
2022/09/13 05:50:40;;;;;;;26.48;15.82;;;17.20;99.90;;;;;;5053445;28;20422;-84
2022/09/13 05:53:05;;;;;;;33.92;16.85;;;17.20;99.90;;;;;;5053340;28;20131;-84
2022/09/13 05:55:32;;;;;;;24.25;13.02;;;17.20;99.90;;;;;;5051947;28;20159;-84
2022/09/13 05:57:57;;;;;;;26.00;13.48;;;17.20;99.90;;;;;;5053208;28;20037;-84
2022/09/13 06:00:23;;;;;;;30.17;14.82;;;17.20;99.90;;;;;;5051300;28;20047;-85
2022/09/13 06:02:49;;;;;;;23.13;13.23;;;17.20;99.90;;;;;;5053191;28;20123;-84
2022/09/13 06:05:14;;;;;;;17.65;11.55;;;17.20;99.90;;;;;;5053069;28;20535;-84
2022/09/13 06:07:41;;;;;;;23.88;11.43;;;17.20;99.90;;;;;;5051231;28;20384;-84
2022/09/13 06:10:08;;;;;;;23.17;11.23;;;17.20;99.90;;;;;;5051601;28;20045;-85
2022/09/13 06:12:34;;;;;;;18.08;9.15;;;17.20;99.90;;;;;;5053026;28;20144;-84
2022/09/13 06:14:59;;;;;;;20.60;9.88;;;17.20;99.90;;;;;;5052893;28;20128;-84
2022/09/13 06:17:25;;;;;;;16.80;8.45;;;17.20;99.90;;;;;;5034712;28;20402;-84
2022/09/13 06:19:51;;;;;;;14.10;7.43;;;17.20;99.90;;;;;;5052812;28;20045;-86
2022/09/13 06:22:17;;;;;;;10.55;6.03;;;17.20;99.90;;;;;;5051534;28;20051;-86
2022/09/13 06:24:42;;;;;;;14.15;6.28;;;17.10;99.90;;;;;;5052778;28;20041;-86
2022/09/13 06:27:09;;;;;;;12.23;6.50;;;17.10;99.90;;;;;;5051946;28;20048;-86
2022/09/13 06:29:37;;;;;;;9.13;4.25;;;17.10;99.90;;;;;;5052207;28;20040;-86
2022/09/13 06:32:03;;;;;;;10.50;4.72;;;17.10;99.90;;;;;;5052545;28;20063;-86
2022/09/13 06:34:29;;;;;;;6.85;4.10;;;17.10;99.90;;;;;;5035722;28;20490;-86
2022/09/13 06:36:54;;;;;;;11.30;4.40;;;17.10;99.90;;;;;;5052080;28;20127;-86
2022/09/13 06:39:20;;;;;;;8.82;4.40;;;17.10;99.90;;;;;;5052255;28;20045;-85
2022/09/13 06:41:46;;;;;;;11.70;4.28;;;17.00;99.90;;;;;;5035684;28;20555;-86
2022/09/13 06:44:12;;;;;;;7.70;3.60;;;17.10;99.90;;;;;;5052338;28;20055;-86
2022/09/13 06:46:37;;;;;;;5.25;3.13;;;17.00;99.90;;;;;;5085640;28;20041;-87
2022/09/13 06:49:05;;;;;;;7.97;3.40;;;17.00;99.90;;;;;;5053252;28;20052;-86
2022/09/13 06:51:32;;;;;;;10.30;3.20;;;17.00;99.90;;;;;;5035405;28;20402;-86
2022/09/13 06:53:59;;;;;;;6.18;2.97;;;17.00;99.90;;;;;;5052571;28;20084;-85
2022/09/13 06:56:29;;;;;;;8.15;3.72;;;17.00;99.90;;;;;;5035581;28;20128;-84
2022/09/13 06:59:03;;;;;;;8.85;3.28;;;16.90;99.90;;;;;;5051471;28;20049;-84
2022/09/13 07:01:38;;;;;;;7.90;2.90;;;16.90;99.90;;;;;;5052086;28;20406;-84
2022/09/13 07:04:06;;;;;;;10.05;3.30;;;16.90;99.90;;;;;;5052727;28;20092;-84
2022/09/13 07:06:37;;;;;;;9.68;3.03;;;16.90;99.90;;;;;;5052757;28;20091;-84
2022/09/13 07:09:06;;;;;;;8.80;3.45;;;16.90;99.90;;;;;;5051285;28;20068;-84
2022/09/13 07:11:35;;;;;;;7.43;3.25;;;16.90;99.90;;;;;;5052808;28;20056;-85
2022/09/13 07:14:01;;;;;;;10.35;3.75;;;16.90;99.90;;;;;;5051731;28;20429;-85
2022/09/13 07:16:32;;;;;;;13.57;7.10;;;16.90;99.90;;;;;;5054996;28;20051;-85
2022/09/13 07:18:59;;;;;;;8.75;3.58;;;17.00;99.90;;;;;;5055225;28;20491;-84
2022/09/13 07:21:27;;;;;;;12.18;4.10;;;16.90;99.90;;;;;;5056353;28;20076;-84
2022/09/13 07:23:55;;;;;;;7.88;3.67;;;16.90;99.90;;;;;;5055467;28;20045;-85
2022/09/13 07:26:21;;;;;;;8.88;3.05;;;16.90;99.90;;;;;;5055324;28;20402;-84
2022/09/13 07:28:49;;;;;;;9.75;4.15;;;16.90;99.90;;;;;;5055812;28;20041;-85
2022/09/13 07:31:23;;;;;;;9.98;3.78;;;16.90;99.90;;;;;;5038262;28;20501;-85
2022/09/13 07:33:54;;;;;;;13.88;4.13;;;16.90;99.90;;;;;;5056309;28;20049;-85
2022/09/13 07:36:20;;;;;;;7.35;3.67;;;17.00;99.90;;;;;;5039191;28;20059;-85
2022/09/13 07:38:47;;;;;;;12.35;4.07;;;17.00;99.90;;;;;;5072040;28;20045;-85
2022/09/13 07:41:15;;;;;;;6.55;2.92;;;17.10;99.90;;;;;;5038543;28;20056;-85
2022/09/13 07:43:41;;;;;;;8.77;4.07;;;17.20;99.90;;;;;;5055788;28;20049;-85
2022/09/13 07:46:09;;;;;;;6.20;3.40;;;17.30;99.90;;;;;;5055665;28;20037;-86
2022/09/13 07:48:38;;;;;;;10.38;3.83;;;17.30;99.90;;;;;;5055720;28;20128;-85
2022/09/13 07:51:30;;;;;;;11.23;3.10;;;17.30;99.90;;;;;;5054827;28;20469;-86
2022/09/13 07:53:59;;;;;;;11.75;3.40;;;17.30;99.90;;;;;;5054618;28;20402;-86
2022/09/13 07:56:27;;;;;;;10.55;2.85;;;17.40;99.90;;;;;;5054460;28;20060;-86
2022/09/13 07:58:54;;;;;;;7.57;2.35;;;17.40;99.90;;;;;;5054202;28;20087;-86
2022/09/13 08:01:23;;;;;;;11.63;2.88;;;17.50;99.90;;;;;;5055571;28;20064;-86
2022/09/13 08:03:57;;;;;;;14.13;3.33;;;17.50;99.90;;;;;;5037618;28;20056;-86
2022/09/13 08:06:24;;;;;;;14.25;3.78;;;17.60;99.90;;;;;;5054280;28;20063;-86
2022/09/13 08:08:50;;;;;;;8.85;3.75;;;17.70;99.90;;;;;;5054142;28;20139;-86
2022/09/13 08:11:24;;;;;;;10.57;3.90;;;17.70;99.90;;;;;;5053974;28;20045;-86
2022/09/13 08:13:51;;;;;;;8.85;3.78;;;17.80;99.90;;;;;;5054516;28;20103;-86
2022/09/13 08:16:19;;;;;;;5.88;2.70;;;17.80;99.90;;;;;;5054280;28;20056;-86
2022/09/13 08:18:47;;;;;;;3.00;1.73;;;18.00;99.90;;;;;;5054374;28;20052;-86
2022/09/13 08:21:13;;;;;;;9.38;2.20;;;18.20;99.90;;;;;;5037573;28;20102;-86
2022/09/13 08:23:39;;;;;;;7.03;1.42;;;18.20;99.90;;;;;;5004725;28;20090;-86
2022/09/13 08:26:06;;;;;;;6.85;1.80;;;18.10;99.90;;;;;;5055903;28;20448;-86
2022/09/13 08:28:34;;;;;;;9.77;1.88;;;17.90;99.90;;;;;;5053837;28;20124;-86
2022/09/13 08:31:12;;;;;;;7.15;1.65;;;17.80;99.90;;;;;;5054641;28;20052;-86
2022/09/13 08:33:38;;;;;;;7.45;1.58;;;17.70;99.90;;;;;;5053770;28;20098;-86
2022/09/13 08:36:04;;;;;;;8.45;1.30;;;17.70;99.90;;;;;;5053582;28;20052;-87
2022/09/13 08:38:31;;;;;;;5.40;1.10;;;17.80;99.90;;;;;;5037830;28;20524;-86
2022/09/13 08:41:04;;;;;;;4.95;0.93;;;17.90;99.90;;;;;;5037636;28;20478;-87
2022/09/13 08:43:48;;;;;;;6.75;1.10;;;17.90;99.90;;;;;;5054235;28;20406;-86
2022/09/13 08:46:16;;;;;;;8.48;1.15;;;17.80;99.90;;;;;;5054034;28;20091;-86
2022/09/13 08:48:46;;;;;;;4.38;1.02;;;17.90;99.90;;;;;;5053251;28;20425;-87
2022/09/13 08:51:39;;;;;;;6.95;1.20;;;18.00;99.90;;;;;;5054718;28;20041;-87
2022/09/13 08:54:05;;;;;;;4.82;1.20;;;18.20;99.90;;;;;;5054766;28;20049;-88
2022/09/13 08:56:43;;;;;;;9.05;0.93;;;18.30;99.90;;;;;;5054619;28;20052;-87
2022/09/13 08:59:17;;;;;;;7.72;0.90;;;18.40;99.90;;;;;;5086527;28;20056;-88
2022/09/13 09:02:04;;;;;;;6.25;1.30;;;18.40;99.90;;;;;;5054601;28;20049;-87
2022/09/13 09:04:43;;;;;;;6.72;1.15;;;18.50;99.90;;;;;;5054383;28;20612;-87
2022/09/13 09:07:21;;;;;;;6.05;1.00;;;18.60;99.90;;;;;;5054009;28;20083;-88
2022/09/13 09:10:04;;;;;;;5.40;1.08;;;19.00;99.90;;;;;;5054365;28;20041;-87
2022/09/13 09:13:08;;;;;;;3.75;1.10;;;19.30;99.90;;;;;;5054519;28;20056;-88
2022/09/13 09:15:46;;;;;;;9.45;1.20;;;19.90;99.90;;;;;;5080315;28;20556;-88
2022/09/13 09:18:28;;;;;;;4.05;0.75;;;20.50;99.90;;;;;;5037362;28;20049;-88
2022/09/13 09:21:01;;;;;;;8.52;1.10;;;21.10;99.90;;;;;;5054119;28;20053;-87
2022/09/13 09:23:38;;;;;;;5.35;0.90;;;21.30;99.90;;;;;;5037109;28;20584;-89
2022/09/13 09:26:17;;;;;;;3.85;0.80;;;20.90;99.90;;;;;;5052998;28;20060;-88
2022/09/13 09:28:52;;;;;;;4.63;0.80;;;21.00;99.90;;;;;;5054098;28;20040;-92
2022/09/13 09:31:47;;;;;;;4.15;1.27;;;21.30;99.90;;;;;;5054288;28;20403;-90
2022/09/13 09:35:07;;;;;;;4.88;0.82;;;21.10;99.90;;;;;;5054192;28;20044;-89
2022/09/13 09:37:35;;;;;;;3.85;0.70;;;21.50;99.90;;;;;;5015356;28;20091;-90
2022/09/13 09:40:06;;;;;;;4.82;0.80;;;22.50;99.90;;;;;;5044820;28;20092;-89
2022/09/13 09:42:41;;;;;;;3.55;0.60;;;22.40;99.90;;;;;;5036344;28;20052;-89
2022/09/13 09:45:16;;;;;;;1.63;0.60;;;22.30;99.90;;;;;;5053039;28;20052;-89
2022/09/13 09:47:46;;;;;;;3.45;0.60;;;22.70;99.90;;;;;;5053230;28;20049;-90
2022/09/13 09:50:19;;;;;;;4.03;0.75;;;23.10;99.90;;;;;;5054775;28;20041;-90
2022/09/13 09:52:55;;;;;;;4.30;0.77;;;23.50;99.90;;;;;;5055184;28;20403;-86
2022/09/13 09:55:44;;;;;;;3.75;0.70;;;23.90;99.90;;;;;;5053981;28;20049;-90
2022/09/13 09:58:15;;;;;;;4.15;0.80;;;24.30;99.90;;;;;;5054775;28;20048;-96
2022/09/13 10:00:50;;;;;;;2.85;0.70;;;24.70;99.90;;;;;;5053198;28;20089;-88
2022/09/13 10:03:18;;;;;;;2.83;0.80;;;24.90;99.90;;;;;;5053944;28;20048;-86
2022/09/13 10:05:45;;;;;;;4.20;0.70;;;24.40;99.90;;;;;;5054858;28;20054;-88
2022/09/13 10:08:27;;;;;;;3.47;0.60;;;24.40;99.90;;;;;;5055149;28;20060;-90
2022/09/13 10:10:56;;;;;;;5.30;0.70;;;24.40;99.90;;;;;;5052927;28;20136;-89
2022/09/13 10:13:23;;;;;;;3.63;0.57;;;24.80;99.90;;;;;;5036261;28;20044;-87
2022/09/13 10:16:01;;;;;;;3.63;0.70;;;25.20;99.90;;;;;;5053382;28;20041;-91
2022/09/13 10:18:29;;;;;;;2.72;0.60;;;24.80;99.90;;;;;;5053417;28;20489;-90
2022/09/13 10:21:01;;;;;;;3.97;0.63;;;24.00;99.90;;;;;;5053824;28;20406;-93
2022/09/13 10:23:28;;;;;;;3.67;0.60;;;23.70;99.90;;;;;;5053336;28;20051;-89
2022/09/13 10:26:03;;;;;;;2.85;0.68;;;23.80;99.90;;;;;;5053362;28;20091;-89
2022/09/13 10:28:50;;;;;;;5.65;0.80;;;24.00;99.90;;;;;;5052750;28;20056;-89
2022/09/13 10:31:18;;;;;;;4.32;0.68;;;24.40;99.90;;;;;;5054187;28;20383;-89
2022/09/13 10:33:59;;;;;;;4.38;0.68;;;24.90;99.90;;;;;;5047224;28;20049;-89
2022/09/13 10:36:31;;;;;;;2.63;0.50;;;25.30;99.90;;;;;;5041990;28;20489;-85
2022/09/13 10:39:07;;;;;;;4.90;0.52;;;25.60;99.20;;;;;;5058725;28;20127;-91
2022/09/13 10:41:37;;;;;;;3.17;0.50;;;25.10;99.90;;;;;;5054231;28;20100;-89
2022/09/13 10:44:06;;;;;;;2.60;0.70;;;24.80;99.90;;;;;;5036384;28;20576;-90
2022/09/13 10:46:38;;;;;;;3.47;0.70;;;24.60;99.90;;;;;;5052388;28;20560;-92
2022/09/13 10:49:04;;;;;;;6.00;0.68;;;24.70;99.90;;;;;;5053678;28;20047;-88
2022/09/13 10:51:37;;;;;;;4.88;0.52;;;24.80;98.20;;;;;;5039503;28;20052;-88
2022/09/13 10:54:23;;;;;;;4.30;0.60;;;24.40;97.50;;;;;;5056737;28;20115;-87
2022/09/13 10:56:50;;;;;;;3.17;0.55;;;23.60;99.90;;;;;;5056693;28;20517;-90
2022/09/13 10:59:21;;;;;;;4.70;0.68;;;23.60;99.90;;;;;;5056576;28;20049;-90
2022/09/13 11:02:21;;;;;;;3.60;0.60;;;24.20;99.90;;;;;;5056224;28;20064;-89
2022/09/13 11:05:28;;;;;;;2.60;0.68;;;25.00;97.50;;;;;;5039111;28;20086;-88
2022/09/13 11:08:20;;;;;;;4.28;0.77;;;25.30;92.90;;;;;;5034648;28;20141;-90
2022/09/13 11:11:04;;;;;;;4.60;0.90;;;25.40;93.00;;;;;;5056555;28;20049;-89
2022/09/13 11:13:49;;;;;;;3.33;0.90;;;25.20;91.10;;;;;;5039384;28;20136;-89
2022/09/13 11:16:25;;;;;;;4.75;0.63;;;25.00;97.20;;;;;;5056291;28;20052;-90
2022/09/13 11:19:13;;;;;;;4.47;0.80;;;24.90;84.50;;;;;;5057125;28;20037;-89
2022/09/13 11:21:56;;;;;;;5.93;0.63;;;24.50;78.10;;;;;;5056648;28;20057;-88
2022/09/13 11:24:47;;;;;;;3.13;0.43;;;23.90;97.10;;;;;;5039325;28;20053;-86
2022/09/13 11:27:30;;;;;;;6.82;1.00;;;23.40;99.90;;;;;;5055122;28;20098;-88
2022/09/13 11:30:09;;;;;;;4.38;0.75;;;23.10;99.90;;;;;;5038751;28;20049;-89
2022/09/13 11:33:04;;;;;;;3.35;0.60;;;23.00;99.90;;;;;;5057077;28;20053;-94
2022/09/13 11:35:42;;;;;;;4.35;0.60;;;23.40;99.90;;;;;;5054924;28;20433;-91
2022/09/13 11:38:14;;;;;;;3.28;0.60;;;23.90;93.90;;;;;;5039390;28;20049;-89
2022/09/13 11:40:49;;;;;;;7.25;0.60;;;24.20;99.90;;;;;;5056239;28;20130;-89
2022/09/13 11:43:15;;;;;;;2.58;0.50;;;24.50;96.70;;;;;;5055688;28;20048;-88
2022/09/13 11:45:53;;;;;;;2.17;0.40;;;24.70;89.90;;;;;;5055185;28;20045;-94
2022/09/13 11:48:39;;;;;;;3.03;0.50;;;24.70;90.50;;;;;;5055168;28;20037;-90
2022/09/13 11:51:26;;;;;;;4.13;0.63;;;24.70;92.50;;;;;;5054139;28;20568;-90
2022/09/13 11:54:00;;;;;;;3.42;0.60;;;24.90;99.00;;;;;;5055822;28;20429;-90
2022/09/13 11:56:51;;;;;;;4.15;0.63;;;25.20;94.30;;;;;;5056245;28;20522;-88
2022/09/13 11:59:51;;;;;;;4.00;0.85;;;25.20;80.00;;;;;;5038768;28;20508;-90
2022/09/13 12:02:44;;;;;;;4.35;0.80;;;24.90;88.70;;;;;;5055460;28;20049;-88
2022/09/13 12:05:18;;;;;;;3.00;0.50;;;24.80;92.20;;;;;;5055053;28;20052;-89
2022/09/13 12:07:52;;;;;;;4.00;0.60;;;24.40;86.40;;;;;;5055369;28;20060;-89
2022/09/13 12:10:25;;;;;;;7.72;0.90;;;23.90;90.10;;;;;;5038176;28;20057;-89
2022/09/13 12:12:52;;;;;;;5.10;0.52;;;23.40;95.60;;;;;;5037747;28;20053;-89
2022/09/13 12:15:31;;;;;;;1.70;0.43;;;23.40;99.90;;;;;;5055671;28;20059;-91
2022/09/13 12:18:27;;;;;;;5.28;0.70;;;23.80;99.90;;;;;;5055001;28;20115;-90
2022/09/13 12:21:05;;;;;;;3.58;0.63;;;24.30;96.80;;;;;;5053723;28;20163;-89
2022/09/13 12:23:45;;;;;;;4.43;0.50;;;24.20;82.70;;;;;;5055217;28;20487;-89
2022/09/13 12:26:32;;;;;;;2.85;0.75;;;24.10;82.10;;;;;;5054639;28;20059;-88
2022/09/13 12:29:14;;;;;;;4.28;0.60;;;24.10;74.20;;;;;;5055115;28;20402;-90
2022/09/13 12:31:40;;;;;;;2.67;0.60;;;24.30;74.40;;;;;;5053994;28;20486;-90
2022/09/13 12:34:10;;;;;;;3.17;0.68;;;24.50;72.20;;;;;;5055396;28;20049;-96
2022/09/13 12:37:01;;;;;;;5.70;0.88;;;24.80;77.60;;;;;;5055084;28;20049;-91
2022/09/13 12:39:42;;;;;;;3.40;0.60;;;24.80;70.60;;;;;;5038232;28;20044;-90
2022/09/13 12:42:37;;;;;;;4.38;0.80;;;24.40;70.90;;;;;;5054804;28;20052;-89
2022/09/13 12:45:27;;;;;;;5.80;1.02;;;24.00;70.60;;;;;;5054752;28;20052;-95
2022/09/13 12:48:20;;;;;;;4.90;0.85;;;23.60;74.90;;;;;;5055385;28;20457;-91
2022/09/13 12:51:13;;;;;;;2.55;0.60;;;23.50;82.90;;;;;;5054258;28;20402;-94
2022/09/13 12:54:02;;;;;;;4.95;0.60;;;23.60;81.10;;;;;;5056795;28;20079;-88
2022/09/13 12:56:41;;;;;;;6.32;0.70;;;23.50;77.70;;;;;;5038299;28;20091;-88
2022/09/13 12:59:28;;;;;;;5.20;0.65;;;23.30;82.60;;;;;;5053782;28;20049;-90
2022/09/13 13:01:54;;;;;;;5.68;1.25;;;23.20;90.10;;;;;;5054447;28;20045;-92
2022/09/13 13:04:30;;;;;;;5.68;0.52;;;23.10;86.20;;;;;;5053566;28;20099;-89
2022/09/13 13:07:00;;;;;;;4.93;0.77;;;22.80;91.00;;;;;;5054496;28;20132;-89
2022/09/13 13:09:41;;;;;;;5.93;0.60;;;22.70;91.30;;;;;;5054578;28;20045;-90